Time;durP1;ratioP1;P1;durP2;ratioP2;P2;SDS_P1;SDS_P2;PMS_P1;PMS_P2;Temp;Humidity;BMP_temperature;BMP_pressure;BME280_temperature;BME280_humidity;BME280_pressure;Samples;Min_cycle;Max_cycle;Signal;HPM_P1;HPM_P2
2021/05/25 00:01:48;;;;;;;5.65;5.15;;;13.30;99.90;;;;;;5061221;28;20231;-68
2021/05/25 00:04:16;;;;;;;5.38;4.95;;;13.20;99.90;;;;;;5060174;28;20219;-67
2021/05/25 00:06:43;;;;;;;6.90;4.93;;;13.20;99.90;;;;;;5060374;28;20204;-67
2021/05/25 00:09:10;;;;;;;5.00;4.50;;;13.20;99.90;;;;;;5060593;28;20282;-67
2021/05/25 00:11:37;;;;;;;6.78;5.10;;;13.10;99.90;;;;;;5060570;28;20212;-68
2021/05/25 00:14:04;;;;;;;5.65;5.15;;;13.20;99.90;;;;;;5060271;28;20215;-68
2021/05/25 00:16:31;;;;;;;5.47;5.00;;;13.30;99.90;;;;;;5059959;28;20214;-67
2021/05/25 00:18:58;;;;;;;9.85;4.65;;;13.20;99.90;;;;;;5059716;28;20203;-69
2021/05/25 00:21:25;;;;;;;5.20;3.97;;;13.30;99.90;;;;;;5049752;28;20239;-68
2021/05/25 00:23:53;;;;;;;4.57;4.20;;;13.20;99.90;;;;;;5059091;28;20204;-68
2021/05/25 00:26:20;;;;;;;4.90;4.50;;;13.30;99.90;;;;;;5052083;28;20220;-68
2021/05/25 00:28:47;;;;;;;5.30;4.80;;;13.30;99.90;;;;;;5059285;28;20203;-69
2021/05/25 00:31:14;;;;;;;7.55;5.55;;;13.30;99.90;;;;;;5053810;28;20208;-67
2021/05/25 00:33:41;;;;;;;5.80;4.85;;;13.30;99.90;;;;;;5044557;28;20228;-69
2021/05/25 00:36:10;;;;;;;5.47;4.97;;;13.20;99.90;;;;;;5044473;28;20410;-70
2021/05/25 00:38:38;;;;;;;6.25;5.68;;;13.20;99.90;;;;;;5059674;28;20207;-68
2021/05/25 00:41:05;;;;;;;5.25;4.82;;;13.30;99.90;;;;;;5050740;28;20250;-68
2021/05/25 00:43:32;;;;;;;6.30;5.38;;;13.30;99.90;;;;;;5057397;28;20425;-68
2021/05/25 00:45:59;;;;;;;5.57;5.18;;;13.30;99.90;;;;;;5055539;28;20213;-69
2021/05/25 00:48:26;;;;;;;4.65;4.25;;;13.30;99.90;;;;;;5056185;28;20253;-69
2021/05/25 00:50:55;;;;;;;5.03;4.50;;;13.30;99.90;;;;;;5059517;28;20290;-67
2021/05/25 00:53:22;;;;;;;4.72;4.15;;;13.20;99.90;;;;;;5058747;28;20214;-68
2021/05/25 00:55:51;;;;;;;4.65;4.35;;;13.10;99.90;;;;;;5059555;28;20218;-68
2021/05/25 00:58:18;;;;;;;5.40;3.83;;;13.10;99.90;;;;;;5088095;28;20211;-67
2021/05/25 01:00:47;;;;;;;5.60;4.50;;;12.90;99.90;;;;;;5059135;28;20207;-68
2021/05/25 01:03:19;;;;;;;4.85;4.32;;;13.00;99.90;;;;;;5058839;28;20234;-67
2021/05/25 01:05:47;;;;;;;7.72;4.60;;;12.90;99.90;;;;;;5058658;28;20216;-67
2021/05/25 01:08:15;;;;;;;4.80;4.30;;;12.90;99.90;;;;;;5059031;28;20226;-67
2021/05/25 01:10:47;;;;;;;4.40;4.03;;;13.00;99.90;;;;;;5055280;28;20315;-67
2021/05/25 01:13:18;;;;;;;4.10;3.80;;;13.00;99.90;;;;;;5053045;28;20230;-67
2021/05/25 01:15:47;;;;;;;4.43;4.07;;;13.10;99.90;;;;;;5048026;28;20232;-67
2021/05/25 01:18:15;;;;;;;4.78;3.95;;;13.10;99.90;;;;;;5045880;28;20281;-67
2021/05/25 01:20:45;;;;;;;4.38;3.75;;;13.00;99.90;;;;;;5091341;28;20395;-67
2021/05/25 01:23:13;;;;;;;5.25;3.80;;;13.00;99.90;;;;;;5058664;28;20237;-68
2021/05/25 01:25:47;;;;;;;4.32;3.95;;;12.90;99.90;;;;;;5058532;28;20203;-67
2021/05/25 01:28:16;;;;;;;3.60;3.30;;;13.10;99.90;;;;;;5058587;28;20214;-67
2021/05/25 01:30:47;;;;;;;4.63;3.90;;;12.90;99.90;;;;;;5051733;28;20209;-66
2021/05/25 01:33:15;;;;;;;4.05;3.75;;;12.90;99.90;;;;;;5058386;28;20235;-67
2021/05/25 01:35:42;;;;;;;4.88;4.43;;;13.10;99.90;;;;;;5058937;28;20239;-66
2021/05/25 01:38:11;;;;;;;5.55;4.22;;;13.30;99.90;;;;;;5058774;28;20203;-65
2021/05/25 01:40:39;;;;;;;4.05;3.67;;;13.30;99.90;;;;;;5058137;28;20256;-66
2021/05/25 01:43:08;;;;;;;3.85;3.55;;;13.30;99.90;;;;;;5055853;28;20235;-66
2021/05/25 01:45:36;;;;;;;3.47;3.25;;;13.20;99.90;;;;;;5058327;28;20269;-66
2021/05/25 01:48:05;;;;;;;4.25;3.95;;;13.20;99.90;;;;;;5057781;28;20278;-65
2021/05/25 01:50:33;;;;;;;4.90;4.05;;;13.20;99.90;;;;;;5056729;28;20429;-66
2021/05/25 01:53:14;;;;;;;3.53;3.33;;;13.10;99.90;;;;;;5056260;28;20456;-65
2021/05/25 01:55:47;;;;;;;3.95;3.60;;;13.10;99.90;;;;;;5057600;28;20218;-65
2021/05/25 01:58:24;;;;;;;4.05;3.70;;;13.30;99.90;;;;;;5058114;28;20234;-66
2021/05/25 02:01:00;;;;;;;4.45;3.90;;;13.30;99.90;;;;;;5049649;28;20203;-65
2021/05/25 02:03:27;;;;;;;4.10;3.80;;;13.20;99.90;;;;;;5057084;28;20238;-64
2021/05/25 02:05:54;;;;;;;7.00;4.47;;;13.20;99.90;;;;;;5058384;28;20410;-65
2021/05/25 02:08:21;;;;;;;4.10;3.80;;;13.30;99.90;;;;;;5058032;28;20227;-67
2021/05/25 02:10:51;;;;;;;4.82;4.43;;;13.30;99.90;;;;;;5058282;28;20203;-64
2021/05/25 02:13:19;;;;;;;4.43;4.10;;;13.30;99.90;;;;;;5057231;28;20283;-65
2021/05/25 02:15:48;;;;;;;5.85;4.97;;;13.40;99.90;;;;;;5066207;28;20207;-65
2021/05/25 02:18:19;;;;;;;4.38;4.00;;;13.40;99.90;;;;;;5057284;28;20728;-66
2021/05/25 02:20:48;;;;;;;6.15;3.92;;;13.30;99.90;;;;;;5050121;28;20216;-64
2021/05/25 02:23:16;;;;;;;4.65;4.22;;;13.30;99.90;;;;;;5049796;28;20422;-64
2021/05/25 02:25:43;;;;;;;4.68;4.28;;;13.40;99.90;;;;;;5056901;28;20207;-65
2021/05/25 02:28:11;;;;;;;5.32;4.82;;;13.40;99.90;;;;;;5057757;28;20215;-65
2021/05/25 02:30:40;;;;;;;5.82;5.38;;;13.30;99.90;;;;;;5057180;28;20535;-65
2021/05/25 02:33:12;;;;;;;7.40;5.22;;;13.20;99.90;;;;;;5057363;28;20301;-65
2021/05/25 02:35:41;;;;;;;7.78;4.90;;;13.20;99.90;;;;;;5056378;28;20211;-65
2021/05/25 02:38:10;;;;;;;4.95;4.55;;;13.30;99.90;;;;;;5051728;28;20207;-65
2021/05/25 02:40:37;;;;;;;5.82;4.30;;;13.40;99.90;;;;;;5056992;28;20261;-65
2021/05/25 02:43:05;;;;;;;5.35;4.85;;;13.40;99.90;;;;;;5057384;28;20223;-66
2021/05/25 02:45:33;;;;;;;4.85;4.32;;;13.30;99.90;;;;;;5050549;28;20492;-65
2021/05/25 02:48:01;;;;;;;4.97;4.57;;;13.30;99.90;;;;;;5054107;28;20207;-65
2021/05/25 02:50:29;;;;;;;5.03;4.63;;;13.10;99.90;;;;;;5052005;28;20291;-66
2021/05/25 02:52:56;;;;;;;5.50;5.00;;;13.20;99.90;;;;;;5057748;28;20246;-65
2021/05/25 02:55:29;;;;;;;5.30;4.80;;;13.30;99.90;;;;;;5057341;28;20417;-65
2021/05/25 02:57:57;;;;;;;7.22;4.70;;;13.30;99.90;;;;;;5042613;28;20222;-66
2021/05/25 03:00:32;;;;;;;5.30;4.80;;;13.20;99.90;;;;;;5057588;28;20203;-65
2021/05/25 03:03:00;;;;;;;5.15;4.65;;;13.30;99.90;;;;;;5053534;28;20218;-65
2021/05/25 03:05:27;;;;;;;4.28;3.88;;;13.40;99.90;;;;;;5061173;28;20278;-65
2021/05/25 03:07:57;;;;;;;4.75;4.45;;;13.50;99.90;;;;;;5050745;28;20231;-65
2021/05/25 03:10:32;;;;;;;4.47;4.07;;;13.50;99.90;;;;;;5061033;28;20207;-65
2021/05/25 03:13:00;;;;;;;3.80;3.47;;;13.40;99.90;;;;;;5059956;28;20269;-64
2021/05/25 03:15:30;;;;;;;4.20;3.80;;;13.40;99.90;;;;;;5051241;28;20438;-64
2021/05/25 03:17:58;;;;;;;4.10;3.70;;;13.60;99.90;;;;;;5047485;28;20210;-64
2021/05/25 03:20:25;;;;;;;4.90;4.50;;;13.60;99.90;;;;;;5054351;28;20203;-64
2021/05/25 03:22:53;;;;;;;4.35;3.67;;;13.60;99.90;;;;;;5060574;28;20232;-64
2021/05/25 03:25:20;;;;;;;8.95;4.30;;;13.60;99.90;;;;;;5051510;28;20265;-64
2021/05/25 03:27:48;;;;;;;4.25;3.85;;;13.80;99.90;;;;;;5061124;28;20260;-65
2021/05/25 03:30:19;;;;;;;5.43;4.07;;;14.00;99.90;;;;;;5047394;28;20208;-65
2021/05/25 03:32:46;;;;;;;3.38;3.10;;;14.20;99.90;;;;;;5048654;28;20235;-65
2021/05/25 03:35:16;;;;;;;3.45;3.15;;;14.10;99.90;;;;;;5048128;28;20209;-65
2021/05/25 03:37:44;;;;;;;3.50;3.17;;;13.90;99.90;;;;;;5056720;28;20211;-65
2021/05/25 03:40:12;;;;;;;2.75;2.55;;;13.90;99.90;;;;;;5049284;28;20575;-65
2021/05/25 03:42:42;;;;;;;3.90;3.60;;;13.90;99.90;;;;;;5046616;28;20262;-65
2021/05/25 03:45:09;;;;;;;3.03;2.75;;;13.70;99.90;;;;;;5050568;28;20210;-64
2021/05/25 03:47:37;;;;;;;2.70;2.50;;;13.70;99.90;;;;;;5057190;28;20214;-66
2021/05/25 03:50:08;;;;;;;3.50;3.20;;;13.50;99.90;;;;;;5060304;28;20401;-66
2021/05/25 03:52:37;;;;;;;3.35;3.15;;;13.50;99.90;;;;;;5052697;28;20211;-65
2021/05/25 03:55:24;;;;;;;4.22;2.67;;;13.50;99.90;;;;;;5060606;28;20263;-65
2021/05/25 04:00:37;;;;;;;4.18;3.40;;;13.30;99.90;;;;;;5046735;28;20294;-65
2021/05/25 04:03:04;;;;;;;3.25;2.90;;;13.20;99.90;;;;;;5059904;28;20566;-65
2021/05/25 04:05:31;;;;;;;3.85;3.42;;;13.20;99.90;;;;;;5056911;28;20208;-65
2021/05/25 04:07:58;;;;;;;5.65;3.00;;;13.20;99.90;;;;;;5044991;28;20208;-65
2021/05/25 04:10:26;;;;;;;3.17;2.92;;;13.30;99.90;;;;;;5055060;28;20218;-66
2021/05/25 04:12:53;;;;;;;2.35;2.25;;;13.40;99.90;;;;;;5056637;28;20275;-65
2021/05/25 04:15:20;;;;;;;3.75;3.42;;;13.70;99.90;;;;;;5043021;28;20204;-65
2021/05/25 04:17:49;;;;;;;2.85;2.65;;;13.80;99.90;;;;;;5058969;28;20249;-66
2021/05/25 04:20:16;;;;;;;2.97;2.78;;;14.00;99.90;;;;;;5060388;28;20207;-65
2021/05/25 04:22:43;;;;;;;3.20;2.90;;;14.10;99.90;;;;;;5049344;28;20223;-66
2021/05/25 04:25:10;;;;;;;3.25;2.90;;;14.20;99.90;;;;;;5059821;28;20364;-66
2021/05/25 04:27:37;;;;;;;3.05;2.78;;;14.40;99.90;;;;;;5059703;28;20456;-66
2021/05/25 04:30:09;;;;;;;3.08;2.63;;;14.70;99.90;;;;;;5051678;28;20204;-65
2021/05/25 04:32:36;;;;;;;2.70;2.58;;;14.90;99.90;;;;;;5051982;28;20553;-65
2021/05/25 04:35:05;;;;;;;2.80;2.60;;;15.00;99.90;;;;;;5052145;28;20295;-65
2021/05/25 04:37:34;;;;;;;2.70;2.50;;;15.10;99.90;;;;;;5059552;28;20391;-65
2021/05/25 04:40:02;;;;;;;4.22;2.78;;;15.40;99.90;;;;;;5083163;28;20708;-65
2021/05/25 04:42:34;;;;;;;2.53;2.33;;;15.90;99.90;;;;;;5051474;28;20301;-65
2021/05/25 04:45:03;;;;;;;4.43;2.90;;;16.30;99.90;;;;;;5047431;28;20234;-65
2021/05/25 04:47:30;;;;;;;2.80;2.43;;;16.80;99.90;;;;;;5055979;28;20447;-65
2021/05/25 04:49:57;;;;;;;3.03;2.63;;;17.10;99.90;;;;;;5059739;28;21010;-65
2021/05/25 04:52:24;;;;;;;4.40;3.03;;;17.30;99.90;;;;;;5058951;28;20457;-65
2021/05/25 04:54:51;;;;;;;8.20;3.10;;;17.60;99.90;;;;;;5059548;28;20668;-65
2021/05/25 04:57:18;;;;;;;8.83;4.23;;;17.90;99.90;;;;;;5057211;28;20517;-65
2021/05/25 04:59:45;;;;;;;3.30;3.00;;;17.90;99.90;;;;;;5059541;28;20428;-66
2021/05/25 05:02:12;;;;;;;7.83;3.20;;;17.90;99.90;;;;;;5058377;28;20543;-66
2021/05/25 05:04:40;;;;;;;7.73;4.03;;;17.90;99.90;;;;;;5058904;28;20504;-66
2021/05/25 05:07:07;;;;;;;3.53;3.23;;;18.00;99.90;;;;;;5059047;28;20449;-66
2021/05/25 05:09:34;;;;;;;4.60;3.10;;;17.90;99.90;;;;;;5058659;28;20861;-66
2021/05/25 05:12:01;;;;;;;6.37;3.30;;;17.80;99.90;;;;;;5058786;28;20441;-65
2021/05/25 05:14:28;;;;;;;4.60;3.30;;;17.50;99.90;;;;;;5057479;28;20529;-65
2021/05/25 05:16:55;;;;;;;7.17;3.40;;;17.40;99.90;;;;;;5059283;28;20469;-68
2021/05/25 05:19:22;;;;;;;6.60;2.80;;;17.10;99.90;;;;;;5058662;28;20420;-66
2021/05/25 05:21:49;;;;;;;7.83;3.40;;;17.00;99.90;;;;;;5059222;28;20440;-67
2021/05/25 05:24:16;;;;;;;3.83;2.70;;;16.90;99.90;;;;;;5057754;28;20705;-64
2021/05/25 05:26:44;;;;;;;3.23;2.50;;;16.90;99.90;;;;;;5091134;28;20466;-65
2021/05/25 05:29:11;;;;;;;2.83;2.63;;;16.90;99.90;;;;;;5057965;28;20463;-66
2021/05/25 05:31:38;;;;;;;4.97;3.17;;;17.00;99.90;;;;;;5058839;28;20626;-65
2021/05/25 05:34:06;;;;;;;8.83;3.20;;;17.00;99.90;;;;;;5057652;28;20453;-65
2021/05/25 05:36:33;;;;;;;5.20;3.70;;;17.00;99.90;;;;;;5057039;28;20451;-65
2021/05/25 05:39:00;;;;;;;6.43;3.33;;;17.00;99.90;;;;;;5058710;28;20547;-66
2021/05/25 05:41:27;;;;;;;3.23;3.00;;;17.10;99.90;;;;;;5054104;28;20585;-64
2021/05/25 05:43:54;;;;;;;5.10;3.43;;;17.30;99.90;;;;;;5038438;28;20512;-65
2021/05/25 05:46:21;;;;;;;8.30;6.57;;;17.50;99.90;;;;;;5047996;28;20419;-65
2021/05/25 05:48:48;;;;;;;5.20;3.70;;;17.70;99.90;;;;;;5038465;28;20444;-66
2021/05/25 05:51:15;;;;;;;6.07;3.00;;;17.80;99.90;;;;;;5051798;28;20674;-66
2021/05/25 05:53:42;;;;;;;11.10;4.87;;;18.00;99.90;;;;;;5058029;28;20472;-65
2021/05/25 05:56:09;;;;;;;6.40;3.10;;;18.30;99.90;;;;;;5054022;28;20507;-65
2021/05/25 05:58:37;;;;;;;4.40;2.77;;;18.60;99.70;;;;;;5056698;28;20777;-66
2021/05/25 06:01:04;;;;;;;5.20;2.80;;;18.80;99.10;;;;;;5055306;28;20422;-64
2021/05/25 06:03:31;;;;;;;6.50;2.80;;;19.60;97.70;;;;;;5056940;28;20453;-65
2021/05/25 06:05:58;;;;;;;9.53;3.00;;;20.20;96.80;;;;;;5054690;28;20476;-66
2021/05/25 06:08:25;;;;;;;6.33;3.67;;;20.40;95.50;;;;;;5086228;28;20634;-65
2021/05/25 06:10:52;;;;;;;4.60;3.20;;;20.20;95.80;;;;;;5053737;28;20430;-67
2021/05/25 06:13:20;;;;;;;3.20;3.00;;;19.80;95.80;;;;;;5057919;28;20411;-67
2021/05/25 06:15:47;;;;;;;6.53;3.43;;;19.20;96.70;;;;;;5055411;28;20780;-65
2021/05/25 06:18:14;;;;;;;3.77;3.40;;;18.90;97.40;;;;;;5057422;28;20419;-65
2021/05/25 06:20:41;;;;;;;3.10;2.80;;;18.80;97.70;;;;;;5053237;28;20416;-66
2021/05/25 06:23:08;;;;;;;8.27;3.40;;;18.90;98.00;;;;;;5054976;28;20816;-65
2021/05/25 06:25:35;;;;;;;8.43;5.13;;;19.20;97.70;;;;;;5055892;28;20430;-66
2021/05/25 06:28:03;;;;;;;11.30;3.70;;;19.20;98.00;;;;;;5057248;28;20497;-66
2021/05/25 06:30:32;;;;;;;6.57;3.23;;;19.20;97.50;;;;;;5049128;28;20423;-64
2021/05/25 06:32:59;;;;;;;4.40;3.07;;;19.00;97.70;;;;;;5049866;28;20440;-65
2021/05/25 06:35:26;;;;;;;3.17;2.87;;;19.20;97.80;;;;;;5054791;28;20415;-64
2021/05/25 06:37:53;;;;;;;7.80;3.47;;;19.00;97.60;;;;;;5054025;28;20422;-66
2021/05/25 06:40:21;;;;;;;2.87;2.40;;;18.90;97.60;;;;;;5046261;28;20751;-64
2021/05/25 06:42:48;;;;;;;8.57;3.50;;;19.00;97.80;;;;;;5043310;28;20467;-65
2021/05/25 06:45:15;;;;;;;4.50;3.33;;;19.90;96.70;;;;;;5052467;28;20416;-64
2021/05/25 06:47:42;;;;;;;4.43;2.80;;;20.40;95.80;;;;;;5047600;28;20419;-65
2021/05/25 06:50:10;;;;;;;4.30;3.47;;;20.50;95.20;;;;;;5045535;28;20451;-66
2021/05/25 06:52:37;;;;;;;7.27;4.83;;;20.50;95.10;;;;;;5045709;28;20444;-66
2021/05/25 06:55:06;;;;;;;10.13;3.87;;;20.20;95.00;;;;;;5056063;28;20421;-65
2021/05/25 06:57:33;;;;;;;2.87;2.67;;;19.30;96.20;;;;;;5057593;28;20512;-64
2021/05/25 07:00:00;;;;;;;4.37;2.73;;;18.80;97.00;;;;;;5057182;28;20444;-65
2021/05/25 07:02:27;;;;;;;3.27;2.50;;;18.50;97.70;;;;;;5048954;28;20446;-65
2021/05/25 07:04:56;;;;;;;3.20;3.00;;;18.20;98.20;;;;;;5049869;28;20419;-65
2021/05/25 07:07:23;;;;;;;5.27;2.80;;;17.90;98.50;;;;;;5046067;28;20429;-67
2021/05/25 07:09:50;;;;;;;3.23;3.00;;;17.40;99.40;;;;;;5041429;28;20408;-65
2021/05/25 07:12:17;;;;;;;3.20;2.63;;;16.80;99.90;;;;;;5042493;28;20429;-64
2021/05/25 07:14:45;;;;;;;4.60;3.40;;;16.50;99.90;;;;;;5046403;28;20456;-67
2021/05/25 07:17:13;;;;;;;2.53;2.33;;;16.40;99.90;;;;;;5057686;28;20425;-66
2021/05/25 07:19:40;;;;;;;2.30;2.17;;;16.30;99.90;;;;;;5055899;28;20417;-65
2021/05/25 07:22:07;;;;;;;2.60;2.40;;;16.20;99.90;;;;;;5057456;28;20521;-65
2021/05/25 07:24:34;;;;;;;3.77;2.60;;;16.00;99.90;;;;;;5056312;28;20811;-65
2021/05/25 07:27:01;;;;;;;5.13;2.33;;;15.80;99.90;;;;;;5057013;28;20424;-69
2021/05/25 07:29:29;;;;;;;2.13;1.83;;;15.60;99.90;;;;;;5048940;28;20438;-64
2021/05/25 07:31:56;;;;;;;2.78;2.58;;;15.30;99.90;;;;;;5048591;28;20240;-68
2021/05/25 07:34:23;;;;;;;3.72;2.75;;;15.20;99.90;;;;;;5056150;28;20242;-66
2021/05/25 07:36:50;;;;;;;2.03;1.92;;;15.10;99.90;;;;;;5047709;28;20476;-66
2021/05/25 07:39:17;;;;;;;2.90;2.33;;;15.00;99.90;;;;;;5051501;28;20215;-65
2021/05/25 07:41:45;;;;;;;7.90;2.70;;;14.90;99.90;;;;;;5049193;28;20236;-65
2021/05/25 07:44:13;;;;;;;2.17;1.88;;;14.80;99.90;;;;;;5056882;28;20227;-65
2021/05/25 07:46:40;;;;;;;9.48;2.08;;;14.70;99.90;;;;;;5052659;28;20208;-65
2021/05/25 07:49:07;;;;;;;1.65;1.55;;;14.60;99.90;;;;;;5051518;28;20211;-65
2021/05/25 07:51:48;;;;;;;2.28;2.03;;;14.60;99.90;;;;;;5052275;28;20251;-65
2021/05/25 07:54:15;;;;;;;2.95;2.45;;;14.50;99.90;;;;;;5060185;28;20207;-65
2021/05/25 07:56:42;;;;;;;2.78;2.47;;;14.40;99.90;;;;;;5059992;28;20533;-65
2021/05/25 07:59:09;;;;;;;1.98;1.88;;;14.40;99.90;;;;;;5059890;28;20210;-64
2021/05/25 08:01:37;;;;;;;1.67;1.58;;;14.30;99.90;;;;;;5058596;28;20218;-65
2021/05/25 08:04:04;;;;;;;1.85;1.75;;;14.30;99.90;;;;;;5055814;28;20563;-65
2021/05/25 08:06:35;;;;;;;3.17;1.70;;;14.20;99.90;;;;;;5048887;28;20250;-68
2021/05/25 08:09:04;;;;;;;1.52;1.40;;;14.10;99.90;;;;;;5059163;28;20207;-65
2021/05/25 08:11:31;;;;;;;2.97;1.88;;;14.10;99.90;;;;;;5053427;28;20234;-66
2021/05/25 08:13:59;;;;;;;1.50;1.40;;;14.00;99.90;;;;;;5057222;28;20275;-65
2021/05/25 08:16:30;;;;;;;1.30;1.30;;;13.90;99.90;;;;;;5056672;28;20490;-66
2021/05/25 08:21:24;;;;;;;1.40;1.30;;;13.90;99.90;;;;;;5057837;28;20224;-65
2021/05/25 08:23:51;;;;;;;4.82;1.50;;;13.70;99.90;;;;;;5051849;28;20235;-66
2021/05/25 08:26:23;;;;;;;3.20;1.40;;;13.60;99.90;;;;;;5058681;28;20277;-65
2021/05/25 08:28:50;;;;;;;1.95;1.83;;;13.70;99.90;;;;;;5055084;28;20212;-66
2021/05/25 08:31:17;;;;;;;3.28;1.98;;;13.80;99.90;;;;;;5057689;28;20238;-64
2021/05/25 08:33:44;;;;;;;4.63;2.33;;;14.00;99.90;;;;;;5079016;28;20278;-65
2021/05/25 08:36:12;;;;;;;3.20;2.10;;;14.20;99.90;;;;;;5051769;28;20397;-66
2021/05/25 08:38:39;;;;;;;4.03;2.22;;;14.40;99.90;;;;;;5049209;28;20433;-65
2021/05/25 08:41:06;;;;;;;2.65;2.45;;;14.60;99.90;;;;;;5058955;28;20762;-65
2021/05/25 08:43:33;;;;;;;2.42;2.22;;;14.60;99.90;;;;;;5049464;28;20277;-65
2021/05/25 08:46:00;;;;;;;5.03;2.10;;;14.70;99.90;;;;;;5059079;28;20203;-67
2021/05/25 08:48:28;;;;;;;2.10;2.00;;;14.60;99.90;;;;;;5057900;28;20203;-66
2021/05/25 08:51:00;;;;;;;2.60;2.33;;;14.80;99.90;;;;;;5059214;28;20208;-67
2021/05/25 08:53:28;;;;;;;3.63;2.47;;;15.00;99.90;;;;;;5056973;28;20215;-67
2021/05/25 08:55:56;;;;;;;2.33;2.20;;;15.20;99.90;;;;;;5055780;28;20393;-66
2021/05/25 08:58:25;;;;;;;2.50;2.30;;;15.40;99.90;;;;;;5056301;28;20270;-66
2021/05/25 09:00:54;;;;;;;2.30;1.95;;;15.70;99.90;;;;;;5057414;28;20204;-67
2021/05/25 09:03:21;;;;;;;1.80;1.70;;;16.00;99.90;;;;;;5054311;28;20578;-67
2021/05/25 09:06:07;;;;;;;4.32;2.35;;;16.00;99.90;;;;;;5056845;28;20444;-67
2021/05/25 09:08:37;;;;;;;3.08;2.78;;;15.90;99.90;;;;;;5051831;28;20205;-67
2021/05/25 09:11:10;;;;;;;3.90;2.25;;;15.80;99.90;;;;;;5056255;28;20248;-67
2021/05/25 09:13:37;;;;;;;4.53;2.30;;;15.70;99.90;;;;;;5052102;28;20278;-66
2021/05/25 09:16:08;;;;;;;2.90;2.57;;;15.90;99.90;;;;;;5045091;28;20449;-66
2021/05/25 09:18:45;;;;;;;3.17;2.63;;;16.50;99.90;;;;;;5056513;28;20779;-66
2021/05/25 09:21:28;;;;;;;4.05;2.58;;;16.40;99.90;;;;;;5058530;28;20498;-66
2021/05/25 09:23:56;;;;;;;3.83;3.27;;;16.80;99.90;;;;;;5058056;28;20481;-66
2021/05/25 09:26:37;;;;;;;3.53;2.40;;;17.00;99.90;;;;;;5052223;28;20422;-66
2021/05/25 09:29:08;;;;;;;2.60;2.40;;;17.10;99.90;;;;;;5058746;28;20453;-66
2021/05/25 09:31:36;;;;;;;2.13;1.90;;;17.10;99.90;;;;;;5050648;28;20441;-66
2021/05/25 09:34:21;;;;;;;4.57;2.77;;;17.20;99.90;;;;;;5055865;28;20466;-66
2021/05/25 09:37:09;;;;;;;2.73;2.50;;;17.10;99.90;;;;;;5055127;28;20503;-65
2021/05/25 09:39:42;;;;;;;2.73;2.43;;;17.20;99.90;;;;;;5057729;28;20422;-66
2021/05/25 09:42:12;;;;;;;3.30;2.30;;;17.20;99.90;;;;;;5058335;28;20475;-65
2021/05/25 09:45:02;;;;;;;4.27;3.97;;;17.50;99.90;;;;;;5057071;28;20531;-66
2021/05/25 09:47:52;;;;;;;4.60;2.77;;;17.30;99.90;;;;;;5057241;28;20417;-66
2021/05/25 09:50:22;;;;;;;3.33;2.57;;;17.40;99.90;;;;;;5054697;28;20451;-65
2021/05/25 09:53:11;;;;;;;2.37;2.17;;;17.50;99.90;;;;;;5058492;28;20424;-65
2021/05/25 09:55:55;;;;;;;2.93;2.73;;;17.60;99.10;;;;;;5056486;28;20805;-65
2021/05/25 09:58:25;;;;;;;10.23;2.60;;;17.70;98.80;;;;;;5057984;28;20897;-64
2021/05/25 10:00:52;;;;;;;2.00;1.90;;;18.00;98.30;;;;;;5057686;28;20445;-65
2021/05/25 10:03:21;;;;;;;2.17;2.00;;;18.10;97.80;;;;;;5057601;28;20457;-65
2021/05/25 10:05:54;;;;;;;2.67;2.47;;;17.90;97.00;;;;;;5056485;28;20504;-65
2021/05/25 10:08:23;;;;;;;3.00;2.70;;;17.70;97.90;;;;;;5054704;28;20472;-65
2021/05/25 10:10:56;;;;;;;6.00;2.60;;;17.60;96.80;;;;;;5057679;28;20446;-65
2021/05/25 10:13:25;;;;;;;3.27;3.00;;;18.10;96.90;;;;;;5053576;28;20431;-65
2021/05/25 10:15:53;;;;;;;2.33;2.23;;;18.10;96.50;;;;;;5057952;28;20749;-65
2021/05/25 10:21:11;;;;;;;3.00;2.80;;;17.90;96.30;;;;;;5056776;28;20418;-65
2021/05/25 10:23:42;;;;;;;17.40;3.47;;;18.00;95.60;;;;;;5052646;28;20520;-67
2021/05/25 10:26:19;;;;;;;3.27;2.97;;;18.20;95.30;;;;;;5057589;28;20418;-66
2021/05/25 10:28:51;;;;;;;4.30;3.90;;;18.10;95.10;;;;;;5053554;28;20453;-66
2021/05/25 10:31:28;;;;;;;3.93;3.47;;;18.10;95.40;;;;;;5056925;28;20840;-65
2021/05/25 10:34:14;;;;;;;6.00;3.93;;;18.00;95.20;;;;;;5057493;28;20462;-65
2021/05/25 10:36:43;;;;;;;3.80;3.27;;;18.20;95.60;;;;;;5056637;28;20425;-65
2021/05/25 10:39:29;;;;;;;3.90;3.60;;;18.60;94.80;;;;;;5055029;28;20431;-66
2021/05/25 10:42:28;;;;;;;5.87;4.73;;;19.20;94.70;;;;;;5053836;28;20449;-66
2021/05/25 10:45:10;;;;;;;3.83;3.53;;;19.20;94.50;;;;;;5055450;28;20534;-67
2021/05/25 10:48:02;;;;;;;3.67;3.47;;;19.10;93.70;;;;;;5057242;28;20469;-65
2021/05/25 10:50:31;;;;;;;3.57;3.37;;;19.00;93.40;;;;;;5056088;28;20451;-66
2021/05/25 10:53:03;;;;;;;4.00;3.07;;;18.60;93.40;;;;;;5057030;28;20424;-66
2021/05/25 10:55:42;;;;;;;3.57;3.27;;;18.70;94.30;;;;;;5054195;28;20436;-66
2021/05/25 10:58:19;;;;;;;6.97;3.67;;;18.70;93.20;;;;;;5055278;28;20407;-66
2021/05/25 11:00:48;;;;;;;3.83;3.53;;;18.40;94.30;;;;;;5053268;28;20413;-65
2021/05/25 11:03:20;;;;;;;5.20;3.87;;;18.20;95.00;;;;;;5057205;28;20895;-65
2021/05/25 11:05:53;;;;;;;3.63;3.33;;;18.00;95.60;;;;;;5055653;28;20548;-65
2021/05/25 11:08:24;;;;;;;6.40;3.63;;;18.00;95.70;;;;;;5051632;28;20718;-66
2021/05/25 11:10:58;;;;;;;5.13;4.50;;;18.20;95.50;;;;;;5055806;28;20426;-65
2021/05/25 11:13:28;;;;;;;9.17;4.27;;;18.60;95.10;;;;;;5056258;28;20418;-66
2021/05/25 11:16:19;;;;;;;5.03;3.57;;;19.10;93.60;;;;;;5055756;28;20807;-65
2021/05/25 11:19:03;;;;;;;3.40;3.20;;;19.50;92.40;;;;;;5056671;28;20468;-66
2021/05/25 11:24:44;;;;;;;7.60;4.27;;;20.50;90.20;;;;;;5055321;28;20446;-66
2021/05/25 11:27:27;;;;;;;4.20;4.00;;;20.60;89.80;;;;;;5060563;28;20423;-65
2021/05/25 11:30:01;;;;;;;5.43;4.20;;;20.50;88.90;;;;;;5059097;28;20965;-66
2021/05/25 11:32:40;;;;;;;4.63;4.23;;;20.30;89.60;;;;;;5091795;28;20737;-68
2021/05/25 11:35:10;;;;;;;4.97;4.70;;;20.20;88.40;;;;;;5058251;28;20462;-66
2021/05/25 11:37:43;;;;;;;4.93;4.17;;;20.60;88.00;;;;;;5058108;28;20403;-67
2021/05/25 11:40:13;;;;;;;4.63;4.23;;;20.60;86.00;;;;;;5057506;28;20799;-68
2021/05/25 11:42:43;;;;;;;4.53;4.10;;;20.50;87.30;;;;;;5060133;28;20453;-68
2021/05/25 11:45:10;;;;;;;3.90;3.80;;;20.40;86.70;;;;;;5058008;28;20458;-66
2021/05/25 11:47:40;;;;;;;4.97;4.67;;;20.30;86.00;;;;;;5060245;28;20787;-66
2021/05/25 11:50:08;;;;;;;4.90;4.60;;;20.50;85.50;;;;;;5059196;28;20648;-66
2021/05/25 11:52:56;;;;;;;5.53;5.13;;;20.90;83.50;;;;;;5087068;28;20436;-66
2021/05/25 11:55:24;;;;;;;5.23;4.93;;;20.70;84.10;;;;;;5055501;28;20423;-66
2021/05/25 11:57:53;;;;;;;4.70;4.50;;;20.60;85.00;;;;;;5060522;28;20633;-65
2021/05/25 12:00:25;;;;;;;4.73;4.43;;;20.90;85.00;;;;;;5058977;28;20451;-67
2021/05/25 12:02:56;;;;;;;5.63;5.23;;;21.10;83.40;;;;;;5060420;28;20432;-66
2021/05/25 12:05:24;;;;;;;4.90;4.50;;;21.00;83.30;;;;;;5059432;28;20485;-67
2021/05/25 12:07:56;;;;;;;4.17;4.07;;;20.80;83.70;;;;;;5059850;28;20426;-66
2021/05/25 12:10:30;;;;;;;4.47;4.27;;;20.60;84.40;;;;;;5059580;28;20441;-66
2021/05/25 12:13:14;;;;;;;5.93;5.57;;;20.50;84.40;;;;;;5058797;28;20740;-65
2021/05/25 12:15:43;;;;;;;4.87;4.60;;;20.60;85.60;;;;;;5059344;28;20412;-66
2021/05/25 12:18:12;;;;;;;5.23;4.73;;;20.70;85.50;;;;;;5059404;28;20440;-67
2021/05/25 12:20:42;;;;;;;5.60;5.20;;;21.00;84.10;;;;;;5090805;28;20416;-67
2021/05/25 12:23:11;;;;;;;4.60;4.40;;;21.20;83.30;;;;;;5057505;28;20653;-67
2021/05/25 12:25:49;;;;;;;4.60;4.40;;;21.10;82.50;;;;;;5059501;28;20495;-65
2021/05/25 12:28:26;;;;;;;5.70;5.20;;;21.40;80.40;;;;;;5059525;28;20781;-69
2021/05/25 12:30:55;;;;;;;4.57;4.27;;;21.30;79.00;;;;;;5058013;28;20441;-66
2021/05/25 12:33:23;;;;;;;5.07;4.73;;;21.40;78.00;;;;;;5059293;28;20465;-68
2021/05/25 12:35:50;;;;;;;5.20;4.80;;;21.40;76.40;;;;;;5058807;28;20446;-66
2021/05/25 12:38:20;;;;;;;4.90;4.70;;;21.20;75.60;;;;;;5088005;28;20409;-66
2021/05/25 12:40:59;;;;;;;5.30;5.00;;;21.20;75.20;;;;;;5059537;28;20709;-68
2021/05/25 12:43:29;;;;;;;4.33;4.13;;;20.60;75.60;;;;;;5055596;28;20441;-66
2021/05/25 12:46:06;;;;;;;4.80;4.60;;;20.40;76.50;;;;;;5057693;28;20537;-66
2021/05/25 12:48:44;;;;;;;4.20;4.00;;;20.10;77.20;;;;;;5056985;28;20613;-65
2021/05/25 12:51:12;;;;;;;4.30;4.10;;;19.50;77.20;;;;;;5058603;28;20494;-65
2021/05/25 12:53:53;;;;;;;4.23;4.13;;;19.00;79.80;;;;;;5057795;28;20442;-67
2021/05/25 12:56:22;;;;;;;4.30;4.07;;;18.40;82.20;;;;;;5058601;28;20445;-65
2021/05/25 12:58:52;;;;;;;4.60;4.23;;;18.20;82.90;;;;;;5058206;28;20415;-68
2021/05/25 13:01:21;;;;;;;4.57;4.27;;;17.70;84.70;;;;;;5055780;28;20414;-65
2021/05/25 13:03:49;;;;;;;3.80;3.60;;;17.50;85.30;;;;;;5090121;28;20892;-66
2021/05/25 13:06:22;;;;;;;6.30;4.33;;;17.30;89.70;;;;;;5056410;28;20525;-66
2021/05/25 13:08:52;;;;;;;4.07;3.80;;;17.10;90.60;;;;;;5057552;28;20418;-66
2021/05/25 13:11:19;;;;;;;4.27;4.07;;;17.00;91.40;;;;;;5058391;28;20435;-66